createdAt,value
2023-02-17T00:02:31.578Z,2.08
2023-02-17T00:05:04.129Z,2.11
2023-02-17T00:07:39.604Z,2.10
2023-02-17T00:10:13.523Z,2.09
2023-02-17T00:12:46.408Z,2.07
2023-02-17T00:15:20.763Z,2.07
2023-02-17T00:17:53.323Z,2.05
2023-02-17T00:20:25.991Z,2.04
2023-02-17T00:22:59.439Z,2.02
2023-02-17T00:25:32.036Z,1.99
2023-02-17T00:28:04.689Z,2.00
2023-02-17T00:30:38.994Z,1.98
2023-02-17T00:33:11.384Z,1.99
2023-02-17T00:35:47.246Z,1.98
2023-02-17T00:38:21.417Z,1.98
2023-02-17T00:40:57.947Z,2.00
2023-02-17T00:43:28.725Z,1.99
2023-02-17T00:46:04.672Z,1.94
2023-02-17T00:48:37.668Z,1.91
2023-02-17T00:51:12.598Z,1.91
2023-02-17T00:53:46.144Z,1.89
2023-02-17T00:56:20.532Z,1.86
2023-02-17T00:58:53.049Z,1.85
2023-02-17T01:01:28.256Z,1.88
2023-02-17T01:04:01.040Z,1.82
2023-02-17T01:06:35.594Z,1.80
2023-02-17T01:09:10.433Z,1.77
2023-02-17T01:11:44.620Z,1.81
2023-02-17T01:14:17.641Z,1.79
2023-02-17T01:16:51.352Z,1.78
2023-02-17T01:19:24.010Z,1.78
2023-02-17T01:21:57.108Z,1.78
2023-02-17T01:24:29.539Z,1.83
2023-02-17T01:27:03.530Z,1.83
2023-02-17T01:29:37.480Z,1.84
2023-02-17T01:32:10.550Z,1.83
2023-02-17T01:34:42.957Z,1.83
2023-02-17T01:37:15.619Z,1.85
2023-02-17T01:39:49.027Z,1.87
2023-02-17T01:42:22.877Z,1.88
2023-02-17T01:45:10.185Z,1.89
2023-02-17T01:47:43.390Z,1.84
2023-02-17T01:50:20.637Z,1.87
2023-02-17T01:52:54.562Z,1.87
2023-02-17T01:55:34.879Z,1.85
2023-02-17T01:58:13.824Z,1.88
2023-02-17T02:00:46.639Z,1.90
2023-02-17T02:03:20.012Z,1.91
2023-02-17T02:05:53.011Z,1.92
2023-02-17T02:08:25.831Z,1.97
2023-02-17T02:11:00.382Z,1.96
2023-02-17T02:13:33.324Z,1.99
2023-02-17T02:16:16.128Z,2.00
2023-02-17T02:18:56.944Z,2.00
2023-02-17T02:21:54.034Z,2.03
2023-02-17T02:24:36.850Z,2.00
2023-02-17T02:27:31.238Z,2.01
2023-02-17T02:30:27.306Z,1.99
2023-02-17T02:33:15.035Z,1.97
2023-02-17T02:35:59.329Z,1.96
2023-02-17T02:38:39.101Z,1.94
2023-02-17T02:41:15.130Z,1.94
2023-02-17T02:43:49.478Z,1.94
2023-02-17T02:46:22.339Z,1.91
2023-02-17T02:48:55.717Z,1.91
2023-02-17T02:51:37.888Z,1.92
2023-02-17T02:54:37.739Z,1.89
2023-02-17T02:57:35.427Z,1.92
2023-02-17T03:00:21.867Z,1.95
2023-02-17T03:02:59.785Z,1.96
2023-02-17T03:05:44.158Z,2.02
2023-02-17T03:08:21.832Z,2.04
2023-02-17T03:11:02.873Z,2.07
2023-02-17T03:13:43.578Z,2.08
2023-02-17T03:16:17.364Z,2.08
2023-02-17T03:18:51.678Z,2.13
2023-02-17T03:21:25.751Z,2.15
2023-02-17T03:23:58.795Z,2.15
2023-02-17T03:26:31.411Z,2.17
2023-02-17T03:29:04.169Z,2.18
2023-02-17T03:31:37.548Z,2.19
2023-02-17T03:34:11.074Z,2.15
2023-02-17T03:36:44.719Z,2.13
2023-02-17T03:39:15.208Z,2.14
2023-02-17T03:41:50.828Z,2.09
2023-02-17T03:44:23.959Z,2.10
2023-02-17T03:46:56.723Z,2.09
2023-02-17T03:49:30.399Z,2.08
2023-02-17T03:52:03.207Z,2.09
2023-02-17T03:54:35.848Z,2.05
2023-02-17T03:57:08.385Z,2.06
2023-02-17T03:59:41.193Z,2.07
2023-02-17T04:02:13.879Z,2.12
2023-02-17T04:04:47.005Z,2.14
2023-02-17T04:07:19.707Z,2.13
2023-02-17T04:09:52.816Z,2.10
2023-02-17T04:12:25.419Z,2.12
2023-02-17T04:14:57.973Z,2.14
2023-02-17T04:17:30.634Z,2.14
2023-02-17T04:20:04.023Z,2.13
2023-02-17T04:22:37.940Z,2.17
2023-02-17T04:25:10.746Z,2.19
2023-02-17T04:27:46.173Z,2.22
2023-02-17T04:30:20.503Z,2.22
2023-02-17T04:32:53.194Z,2.23
2023-02-17T04:35:26.055Z,2.25
2023-02-17T04:37:59.077Z,2.27
2023-02-17T04:40:32.326Z,2.28
2023-02-17T04:43:08.841Z,2.29
2023-02-17T04:45:44.064Z,2.28
2023-02-17T04:48:16.912Z,2.30
2023-02-17T04:50:49.663Z,2.32
2023-02-17T04:53:23.021Z,2.31
2023-02-17T04:55:56.622Z,2.32
2023-02-17T04:58:29.284Z,2.33
2023-02-17T05:01:02.631Z,2.36
2023-02-17T05:03:35.231Z,2.39
2023-02-17T05:06:08.739Z,2.42
2023-02-17T05:08:41.606Z,2.44
2023-02-17T05:11:14.623Z,2.45
2023-02-17T05:13:47.192Z,2.48
2023-02-17T05:16:19.948Z,2.45
2023-02-17T05:18:53.271Z,2.43
2023-02-17T05:21:25.969Z,2.44
2023-02-17T05:23:59.560Z,2.41
2023-02-17T05:26:32.162Z,2.42
2023-02-17T05:29:05.068Z,2.43
2023-02-17T05:31:38.027Z,2.43
2023-02-17T05:34:10.691Z,2.45
2023-02-17T05:36:43.388Z,2.44
2023-02-17T05:39:17.493Z,2.42
2023-02-17T05:41:50.068Z,2.43
2023-02-17T05:44:22.683Z,2.42
2023-02-17T05:46:55.321Z,2.45
2023-02-17T05:49:28.824Z,2.50
2023-02-17T05:52:02.751Z,2.51
2023-02-17T05:54:35.607Z,2.53
2023-02-17T05:57:09.944Z,2.56
2023-02-17T05:59:42.526Z,2.59
2023-02-17T06:02:15.340Z,2.60
2023-02-17T06:04:47.972Z,2.63
2023-02-17T06:07:20.708Z,2.68
2023-02-17T06:09:53.774Z,2.72
2023-02-17T06:12:26.956Z,2.76
2023-02-17T06:15:04.266Z,2.81
2023-02-17T06:17:51.348Z,2.83
2023-02-17T06:20:24.699Z,2.85
2023-02-17T06:22:57.340Z,2.89
2023-02-17T06:25:30.060Z,2.93
2023-02-17T06:28:04.078Z,2.94
2023-02-17T06:30:36.754Z,2.96
2023-02-17T06:33:09.607Z,2.97
2023-02-17T06:35:42.375Z,3.00
2023-02-17T06:38:15.452Z,3.02
2023-02-17T06:40:48.057Z,3.03
2023-02-17T06:43:20.712Z,3.04
2023-02-17T06:45:54.066Z,3.07
2023-02-17T06:48:27.232Z,3.12
2023-02-17T06:51:05.230Z,3.13
2023-02-17T06:53:37.876Z,3.18
2023-02-17T06:56:11.394Z,3.22
2023-02-17T06:58:42.125Z,3.27
2023-02-17T07:01:20.427Z,3.26
2023-02-17T07:04:00.038Z,3.32
2023-02-17T07:06:33.672Z,3.38
2023-02-17T07:09:04.967Z,3.43
2023-02-17T07:11:38.670Z,3.43
2023-02-17T07:14:11.177Z,3.48
2023-02-17T07:16:43.950Z,3.54
2023-02-17T07:19:16.483Z,3.58
2023-02-17T07:21:49.652Z,3.60
2023-02-17T07:24:22.328Z,3.63
2023-02-17T07:26:56.470Z,3.69
2023-02-17T07:29:30.178Z,3.75
2023-02-17T07:32:01.415Z,3.79
2023-02-17T07:34:35.738Z,3.82
2023-02-17T07:37:09.652Z,3.90
2023-02-17T07:39:42.736Z,3.98
2023-02-17T07:42:15.665Z,4.05
2023-02-17T07:44:48.477Z,4.10
2023-02-17T07:47:23.898Z,4.13
2023-02-17T07:50:22.823Z,4.18
2023-02-17T08:00:12.995Z,4.34
2023-02-17T08:02:46.336Z,4.42
2023-02-17T08:05:20.087Z,4.46
2023-02-17T08:08:13.661Z,4.51
2023-02-17T08:11:06.484Z,4.54
2023-02-17T08:13:39.423Z,4.59
2023-02-17T08:16:13.840Z,4.65
2023-02-17T08:18:46.533Z,4.70
2023-02-17T08:21:19.269Z,4.70
2023-02-17T08:23:51.995Z,4.71
2023-02-17T08:26:25.275Z,4.72
2023-02-17T08:29:01.176Z,4.78
2023-02-17T08:31:38.439Z,4.80
2023-02-17T08:34:13.511Z,4.83
2023-02-17T08:36:46.245Z,4.90
2023-02-17T08:39:20.628Z,4.97
2023-02-17T08:41:53.362Z,5.01
2023-02-17T08:44:26.166Z,5.11
2023-02-17T08:46:59.069Z,5.22
2023-02-17T08:49:33.203Z,5.37
2023-02-17T08:52:06.053Z,5.59
2023-02-17T08:54:39.807Z,5.85
2023-02-17T08:57:14.596Z,6.14
2023-02-17T08:59:48.474Z,6.41
2023-02-17T09:02:19.179Z,6.64
2023-02-17T09:04:52.476Z,6.73
2023-02-17T09:07:25.215Z,6.80
2023-02-17T09:09:58.323Z,6.82
2023-02-17T09:12:31.095Z,6.84
2023-02-17T09:15:04.420Z,6.90
2023-02-17T09:17:40.230Z,7.02
2023-02-17T09:20:24.439Z,7.03
2023-02-17T09:22:58.409Z,7.03
2023-02-17T09:25:30.970Z,7.13
2023-02-17T09:28:04.003Z,7.25
2023-02-17T09:30:37.092Z,7.31
2023-02-17T09:33:09.966Z,7.28
2023-02-17T09:35:46.174Z,7.26
2023-02-17T09:38:19.019Z,7.21
2023-02-17T09:40:52.635Z,7.13
2023-02-17T09:43:31.026Z,7.01
2023-02-17T09:46:10.595Z,6.94
2023-02-17T09:48:44.413Z,6.86
2023-02-17T09:51:24.549Z,6.82
2023-02-17T09:54:04.860Z,6.72
2023-02-17T09:56:41.810Z,6.64
2023-02-17T09:59:20.120Z,6.60
2023-02-17T10:01:56.009Z,6.54
2023-02-17T10:04:36.284Z,6.51
2023-02-17T10:07:16.673Z,6.44
2023-02-17T10:09:53.542Z,6.38
2023-02-17T10:12:33.892Z,6.38
2023-02-17T10:15:13.468Z,6.35
2023-02-17T10:17:52.770Z,6.37
2023-02-17T10:20:30.346Z,6.35
2023-02-17T10:23:11.036Z,6.37
2023-02-17T10:26:08.233Z,6.39
2023-02-17T10:28:51.787Z,6.44
2023-02-17T10:31:33.657Z,6.50
2023-02-17T10:34:14.011Z,6.51
2023-02-17T10:36:57.884Z,6.50
2023-02-17T10:39:49.353Z,6.47
2023-02-17T10:42:27.647Z,6.48
2023-02-17T10:45:06.240Z,6.53
2023-02-17T10:47:41.540Z,6.54
2023-02-17T10:50:23.357Z,6.55
2023-02-17T10:52:58.082Z,6.55
2023-02-17T10:55:39.118Z,6.58
2023-02-17T10:58:24.151Z,6.61
2023-02-17T11:00:59.429Z,6.72
2023-02-17T11:03:37.124Z,6.78
2023-02-17T11:06:18.594Z,6.82
2023-02-17T11:08:54.399Z,6.90
2023-02-17T11:11:28.944Z,6.92
2023-02-17T11:14:15.480Z,6.90
2023-02-17T11:16:51.955Z,6.93
2023-02-17T11:19:29.487Z,6.89
2023-02-17T11:22:03.571Z,6.90
2023-02-17T11:24:39.019Z,6.85
2023-02-17T11:27:14.755Z,6.85
2023-02-17T11:29:47.653Z,6.80
2023-02-17T11:32:20.621Z,6.78
2023-02-17T11:35:01.015Z,6.75
2023-02-17T11:37:39.417Z,6.71
2023-02-17T11:40:26.701Z,6.70
2023-02-17T11:43:04.348Z,6.62
2023-02-17T11:45:45.852Z,6.56
2023-02-17T11:48:40.120Z,6.55
2023-02-17T11:51:12.929Z,6.55
2023-02-17T11:53:57.479Z,6.59
2023-02-17T11:56:36.673Z,6.62
2023-02-17T11:59:40.814Z,6.67
2023-02-17T12:02:31.013Z,6.67
2023-02-17T12:05:20.957Z,6.73
2023-02-17T12:08:06.975Z,6.80
2023-02-17T12:11:02.192Z,6.82
2023-02-17T12:13:47.364Z,6.87
2023-02-17T12:16:45.886Z,6.90
2023-02-17T12:19:35.446Z,6.93
2023-02-17T12:22:21.197Z,6.97
2023-02-17T12:25:26.113Z,6.98
2023-02-17T12:28:12.365Z,6.98
2023-02-17T12:30:57.925Z,6.96
2023-02-17T12:33:49.585Z,6.91
2023-02-17T12:36:22.935Z,6.92
2023-02-17T12:39:00.999Z,6.89
2023-02-17T12:41:37.229Z,6.83
2023-02-17T12:44:14.955Z,6.82
2023-02-17T12:46:53.201Z,6.75
2023-02-17T12:49:31.830Z,6.75
2023-02-17T12:52:11.505Z,6.78
2023-02-17T12:54:57.810Z,6.72
2023-02-17T12:57:38.844Z,6.76
2023-02-17T13:00:22.434Z,6.81
2023-02-17T13:02:59.111Z,6.80
2023-02-17T13:05:39.129Z,6.75
2023-02-17T13:08:16.417Z,6.69
2023-02-17T13:10:50.737Z,6.68
2023-02-17T13:13:33.780Z,6.65
2023-02-17T13:16:08.972Z,6.64
2023-02-17T13:18:43.733Z,6.60
2023-02-17T13:21:34.155Z,6.61
2023-02-17T13:24:11.181Z,6.61
2023-02-17T13:26:44.850Z,6.63
2023-02-17T13:29:22.625Z,6.66
2023-02-17T13:31:59.450Z,6.66
2023-02-17T13:34:37.788Z,6.71
2023-02-17T13:37:28.701Z,6.66
2023-02-17T13:40:02.495Z,6.72
2023-02-17T13:42:40.829Z,6.75
2023-02-17T13:45:19.732Z,6.79
2023-02-17T13:47:54.927Z,6.79
2023-02-17T13:50:38.231Z,6.75
2023-02-17T13:53:26.519Z,6.77
2023-02-17T13:56:01.164Z,6.78
2023-02-17T13:58:36.662Z,6.80
2023-02-17T14:01:16.820Z,6.85
2023-02-17T14:03:52.883Z,6.86
2023-02-17T14:06:29.809Z,6.85
2023-02-17T14:09:13.365Z,6.87
2023-02-17T14:11:46.164Z,6.91
2023-02-17T14:14:19.243Z,6.90
2023-02-17T14:17:04.357Z,6.91
2023-02-17T14:19:48.064Z,6.91
2023-02-17T14:22:30.327Z,6.93
2023-02-17T14:25:05.809Z,6.93
2023-02-17T14:27:47.762Z,6.93
2023-02-17T14:30:33.940Z,6.93
2023-02-17T14:33:09.494Z,6.89
2023-02-17T14:35:51.054Z,6.89
2023-02-17T14:38:29.133Z,6.90
2023-02-17T14:41:01.767Z,6.91
2023-02-17T14:43:34.872Z,6.85
2023-02-17T14:46:08.192Z,6.86
2023-02-17T14:48:39.060Z,6.84
2023-02-17T14:51:15.898Z,6.82
2023-02-17T14:53:49.266Z,6.82
2023-02-17T14:56:26.971Z,6.84
2023-02-17T14:58:59.928Z,6.83
2023-02-17T15:01:34.788Z,6.85
2023-02-17T15:04:11.216Z,6.86
2023-02-17T15:06:48.502Z,6.84
2023-02-17T15:09:29.156Z,6.79
2023-02-17T15:12:03.081Z,6.83
2023-02-17T15:14:35.878Z,6.84
2023-02-17T15:17:09.724Z,6.82
2023-02-17T15:19:45.290Z,6.82
2023-02-17T15:22:18.093Z,6.83
2023-02-17T15:24:50.767Z,6.82
2023-02-17T15:27:23.918Z,6.79
2023-02-17T15:29:56.888Z,6.79
2023-02-17T15:32:30.153Z,6.77
2023-02-17T15:35:03.716Z,6.72
2023-02-17T15:37:36.399Z,6.70
2023-02-17T15:40:14.535Z,6.66
2023-02-17T15:42:51.715Z,6.59
2023-02-17T15:45:25.788Z,6.55
2023-02-17T15:48:06.258Z,6.53
2023-02-17T15:50:41.516Z,6.53
2023-02-17T15:53:14.264Z,6.51
2023-02-17T15:55:47.491Z,6.51
2023-02-17T15:58:22.864Z,6.55
2023-02-17T16:01:00.855Z,6.50
2023-02-17T16:03:33.687Z,6.54
2023-02-17T16:06:07.262Z,6.55
2023-02-17T16:08:40.369Z,6.53
2023-02-17T16:11:16.507Z,6.50
2023-02-17T16:13:49.984Z,6.54
2023-02-17T16:16:25.796Z,6.53
2023-02-17T16:18:59.062Z,6.52
2023-02-17T16:21:31.865Z,6.52
2023-02-17T16:24:04.436Z,6.52
2023-02-17T16:26:38.473Z,6.53
2023-02-17T16:29:17.899Z,6.52
2023-02-17T16:31:51.305Z,6.53
2023-02-17T16:34:26.400Z,6.53
2023-02-17T16:37:02.914Z,6.52
2023-02-17T16:39:35.770Z,6.53
2023-02-17T16:42:11.614Z,6.53
2023-02-17T16:44:45.261Z,6.57
2023-02-17T16:47:24.189Z,6.56
2023-02-17T16:49:58.211Z,6.57
2023-02-17T16:52:31.451Z,6.59
2023-02-17T16:55:04.428Z,6.56
2023-02-17T16:57:37.227Z,6.59
2023-02-17T17:00:13.117Z,6.57
2023-02-17T17:02:46.635Z,6.60
2023-02-17T17:05:20.605Z,6.60
2023-02-17T17:07:54.175Z,6.60
2023-02-17T17:10:28.869Z,6.60
2023-02-17T17:13:02.003Z,6.64
2023-02-17T17:15:36.793Z,6.66
2023-02-17T17:18:11.514Z,6.71
2023-02-17T17:20:44.308Z,6.70
2023-02-17T17:23:19.135Z,6.74
2023-02-17T17:25:52.292Z,6.77
2023-02-17T17:28:25.753Z,6.79
2023-02-17T17:30:58.283Z,6.79
2023-02-17T17:33:30.987Z,6.83
2023-02-17T17:36:04.068Z,6.83
2023-02-17T17:38:36.795Z,6.84
2023-02-17T17:41:11.007Z,6.86
2023-02-17T17:43:46.059Z,6.89
2023-02-17T17:46:21.322Z,6.90
2023-02-17T17:48:54.546Z,6.91
2023-02-17T17:51:28.079Z,6.94
2023-02-17T17:54:01.416Z,6.95
2023-02-17T17:56:37.129Z,6.99
2023-02-17T17:59:10.466Z,7.03
2023-02-17T18:01:45.737Z,7.07
2023-02-17T18:04:20.208Z,7.11
2023-02-17T18:06:55.587Z,7.13
2023-02-17T18:09:32.289Z,7.21
2023-02-17T18:12:08.688Z,7.22
2023-02-17T18:14:43.718Z,7.25
2023-02-17T18:17:18.565Z,7.26
2023-02-17T18:19:55.385Z,7.31
2023-02-17T18:22:28.030Z,7.35
2023-02-17T18:25:01.011Z,7.38
2023-02-17T18:27:38.544Z,7.41
2023-02-17T18:30:15.549Z,7.40
2023-02-17T18:32:48.511Z,7.40
2023-02-17T18:35:22.345Z,7.45
2023-02-17T18:37:55.638Z,7.41
2023-02-17T18:40:29.504Z,7.39
2023-02-17T18:43:02.500Z,7.37
2023-02-17T18:45:35.421Z,7.35
2023-02-17T18:48:08.616Z,7.33
2023-02-17T18:50:41.470Z,7.34
2023-02-17T18:53:16.143Z,7.32
2023-02-17T18:55:49.120Z,7.30
2023-02-17T18:58:21.641Z,7.32
2023-02-17T19:00:54.960Z,7.30
2023-02-17T19:03:27.789Z,7.28
2023-02-17T19:06:01.252Z,7.29
2023-02-17T19:08:34.931Z,7.29
2023-02-17T19:11:15.486Z,7.30
2023-02-17T19:13:49.078Z,7.27
2023-02-17T19:16:24.725Z,7.29
2023-02-17T19:18:58.381Z,7.33
2023-02-17T19:21:31.048Z,7.32
2023-02-17T19:24:03.832Z,7.36
2023-02-17T19:26:37.965Z,7.35
2023-02-17T19:29:11.420Z,7.36
2023-02-17T19:31:44.441Z,7.34
2023-02-17T19:34:20.248Z,7.34
2023-02-17T19:36:53.025Z,7.32
2023-02-17T19:39:25.960Z,7.33
2023-02-17T19:42:03.650Z,7.32
2023-02-17T19:44:37.202Z,7.34
2023-02-17T19:47:10.146Z,7.34
2023-02-17T19:49:42.961Z,7.38
2023-02-17T19:52:15.729Z,7.35
2023-02-17T19:54:50.176Z,7.35
2023-02-17T19:57:22.819Z,7.35
2023-02-17T19:59:55.866Z,7.37
2023-02-17T20:02:30.229Z,7.38
2023-02-17T20:05:02.987Z,7.39
2023-02-17T20:07:42.307Z,7.43
2023-02-17T20:10:16.672Z,7.43
2023-02-17T20:12:49.455Z,7.45
2023-02-17T20:15:22.444Z,7.47
2023-02-17T20:17:55.184Z,7.48
2023-02-17T20:20:27.691Z,7.48
2023-02-17T20:23:00.956Z,7.52
2023-02-17T20:25:33.974Z,7.54
2023-02-17T20:28:07.115Z,7.52
2023-02-17T20:30:39.801Z,7.53
2023-02-17T20:33:13.554Z,7.52
2023-02-17T20:35:46.244Z,7.55
2023-02-17T20:38:19.085Z,7.58
2023-02-17T20:40:51.861Z,7.58
2023-02-17T20:43:24.664Z,7.61
2023-02-17T20:45:57.662Z,7.59
2023-02-17T20:48:30.257Z,7.60
2023-02-17T20:51:04.506Z,7.64
2023-02-17T20:53:37.287Z,7.65
2023-02-17T20:56:16.739Z,7.65
2023-02-17T20:58:49.858Z,7.65
2023-02-17T21:01:22.777Z,7.67
2023-02-17T21:03:55.612Z,7.72
2023-02-17T21:06:30.598Z,7.76
2023-02-17T21:09:07.188Z,7.75
2023-02-17T21:11:52.980Z,7.74
2023-02-17T21:14:26.551Z,7.75
2023-02-17T21:16:59.407Z,7.77
2023-02-17T21:19:32.240Z,7.78
2023-02-17T21:22:05.160Z,7.79
2023-02-17T21:24:37.860Z,7.79
2023-02-17T21:27:10.386Z,7.79
2023-02-17T21:29:44.443Z,7.80
2023-02-17T21:32:17.196Z,7.82
2023-02-17T21:34:50.353Z,7.83
2023-02-17T21:37:23.047Z,7.83
2023-02-17T21:39:55.651Z,7.85
2023-02-17T21:42:46.109Z,7.83
2023-02-17T21:45:19.006Z,7.85
2023-02-17T21:47:51.567Z,7.85
2023-02-17T21:50:24.285Z,7.85
2023-02-17T21:52:58.281Z,7.85
2023-02-17T21:55:31.027Z,7.87
2023-02-17T21:58:03.602Z,7.86
2023-02-17T22:00:38.568Z,7.88
2023-02-17T22:03:11.190Z,7.89
2023-02-17T22:05:44.114Z,7.87
2023-02-17T22:08:16.792Z,7.88
2023-02-17T22:10:50.831Z,7.87
2023-02-17T22:13:24.884Z,7.86
2023-02-17T22:16:04.417Z,7.92
2023-02-17T22:18:37.229Z,7.91
2023-02-17T22:21:14.096Z,7.93
2023-02-17T22:23:48.611Z,7.92
2023-02-17T22:26:23.557Z,7.89
2023-02-17T22:28:56.607Z,7.84
2023-02-17T22:31:31.500Z,7.79
2023-02-17T22:34:06.621Z,7.76
2023-02-17T22:36:39.912Z,7.77
2023-02-17T22:39:12.682Z,7.79
2023-02-17T22:41:45.342Z,7.79
2023-02-17T22:44:18.042Z,7.78
2023-02-17T22:46:50.636Z,7.81
2023-02-17T22:49:22.138Z,7.82
2023-02-17T22:51:54.807Z,7.76
2023-02-17T22:54:27.284Z,7.76
2023-02-17T22:57:00.241Z,7.78
2023-02-17T22:59:32.903Z,7.78
2023-02-17T23:02:05.669Z,7.77
2023-02-17T23:04:39.002Z,7.78
2023-02-17T23:07:12.361Z,7.78
2023-02-17T23:09:45.754Z,7.78
2023-02-17T23:12:19.310Z,7.77
2023-02-17T23:14:52.396Z,7.76
2023-02-17T23:17:24.132Z,7.76
2023-02-17T23:19:57.918Z,7.74
2023-02-17T23:22:31.123Z,7.81
2023-02-17T23:25:05.837Z,7.83
2023-02-17T23:27:39.872Z,7.87
2023-02-17T23:30:20.087Z,7.91
2023-02-17T23:32:54.345Z,7.94
2023-02-17T23:35:25.486Z,7.94
2023-02-17T23:37:58.999Z,7.95
2023-02-17T23:40:31.638Z,8.01
2023-02-17T23:43:05.320Z,8.08
2023-02-17T23:45:36.568Z,8.12
2023-02-17T23:48:09.899Z,8.12
2023-02-17T23:50:41.064Z,8.18
2023-02-17T23:53:13.618Z,8.17
2023-02-17T23:55:46.208Z,8.25
2023-02-17T23:58:21.707Z,8.33
